sensor_id;sensor_type;location;lat;lon;timestamp;P1;durP1;ratioP1;P2;durP2;ratioP2
36385;SDS011;24125;47.482;8.770;2022-10-14T00:02:17;7.20;;;5.25;;
36385;SDS011;24125;47.482;8.770;2022-10-14T00:04:51;7.63;;;5.30;;
36385;SDS011;24125;47.482;8.770;2022-10-14T00:07:24;8.77;;;5.47;;
36385;SDS011;24125;47.482;8.770;2022-10-14T00:09:57;10.18;;;5.68;;
36385;SDS011;24125;47.482;8.770;2022-10-14T00:12:30;9.35;;;5.00;;
36385;SDS011;24125;47.482;8.770;2022-10-14T00:15:04;7.18;;;5.40;;
36385;SDS011;24125;47.482;8.770;2022-10-14T00:17:38;7.43;;;4.85;;
36385;SDS011;24125;47.482;8.770;2022-10-14T00:20:12;6.78;;;4.93;;
36385;SDS011;24125;47.482;8.770;2022-10-14T00:22:45;8.55;;;5.50;;
36385;SDS011;24125;47.482;8.770;2022-10-14T00:25:18;8.93;;;5.32;;
36385;SDS011;24125;47.482;8.770;2022-10-14T00:27:51;6.45;;;4.63;;
36385;SDS011;24125;47.482;8.770;2022-10-14T00:30:24;7.05;;;4.75;;
36385;SDS011;24125;47.482;8.770;2022-10-14T00:32:56;5.82;;;4.70;;
36385;SDS011;24125;47.482;8.770;2022-10-14T00:35:31;5.72;;;4.35;;
36385;SDS011;24125;47.482;8.770;2022-10-14T00:38:04;7.32;;;4.78;;
36385;SDS011;24125;47.482;8.770;2022-10-14T00:40:37;6.85;;;4.63;;
36385;SDS011;24125;47.482;8.770;2022-10-14T00:43:09;9.07;;;4.95;;
36385;SDS011;24125;47.482;8.770;2022-10-14T00:45:44;6.22;;;4.57;;
36385;SDS011;24125;47.482;8.770;2022-10-14T00:48:17;7.07;;;4.13;;
36385;SDS011;24125;47.482;8.770;2022-10-14T00:50:54;6.55;;;5.05;;
36385;SDS011;24125;47.482;8.770;2022-10-14T00:53:28;6.43;;;4.50;;
36385;SDS011;24125;47.482;8.770;2022-10-14T00:56:01;8.18;;;4.80;;
36385;SDS011;24125;47.482;8.770;2022-10-14T00:58:35;6.45;;;4.47;;
36385;SDS011;24125;47.482;8.770;2022-10-14T01:01:09;7.15;;;4.75;;
36385;SDS011;24125;47.482;8.770;2022-10-14T01:03:42;7.95;;;4.38;;
36385;SDS011;24125;47.482;8.770;2022-10-14T01:06:19;6.55;;;4.28;;
36385;SDS011;24125;47.482;8.770;2022-10-14T01:09:02;5.93;;;4.15;;
36385;SDS011;24125;47.482;8.770;2022-10-14T01:11:45;8.90;;;4.38;;
36385;SDS011;24125;47.482;8.770;2022-10-14T01:14:48;5.80;;;4.28;;
36385;SDS011;24125;47.482;8.770;2022-10-14T01:17:38;6.03;;;4.28;;
36385;SDS011;24125;47.482;8.770;2022-10-14T01:20:29;6.78;;;4.15;;
36385;SDS011;24125;47.482;8.770;2022-10-14T01:26:26;5.77;;;3.80;;
36385;SDS011;24125;47.482;8.770;2022-10-14T01:29:16;6.30;;;4.18;;
36385;SDS011;24125;47.482;8.770;2022-10-14T01:32:02;6.10;;;4.03;;
36385;SDS011;24125;47.482;8.770;2022-10-14T01:34:43;6.28;;;4.43;;
36385;SDS011;24125;47.482;8.770;2022-10-14T01:37:23;8.27;;;4.38;;
36385;SDS011;24125;47.482;8.770;2022-10-14T01:39:59;15.27;;;4.13;;
36385;SDS011;24125;47.482;8.770;2022-10-14T01:42:37;6.15;;;3.97;;
36385;SDS011;24125;47.482;8.770;2022-10-14T01:45:14;5.63;;;4.13;;
36385;SDS011;24125;47.482;8.770;2022-10-14T01:47:52;5.47;;;4.07;;
36385;SDS011;24125;47.482;8.770;2022-10-14T01:50:27;6.38;;;3.63;;
36385;SDS011;24125;47.482;8.770;2022-10-14T01:53:03;6.40;;;3.60;;
36385;SDS011;24125;47.482;8.770;2022-10-14T01:55:39;5.18;;;3.15;;
36385;SDS011;24125;47.482;8.770;2022-10-14T01:58:17;5.70;;;3.40;;
36385;SDS011;24125;47.482;8.770;2022-10-14T02:00:53;8.18;;;3.65;;
36385;SDS011;24125;47.482;8.770;2022-10-14T02:03:38;5.45;;;3.40;;
36385;SDS011;24125;47.482;8.770;2022-10-14T02:06:15;5.63;;;2.90;;
36385;SDS011;24125;47.482;8.770;2022-10-14T02:08:57;5.18;;;2.97;;
36385;SDS011;24125;47.482;8.770;2022-10-14T02:11:41;4.38;;;3.00;;
36385;SDS011;24125;47.482;8.770;2022-10-14T02:14:27;8.30;;;3.08;;
36385;SDS011;24125;47.482;8.770;2022-10-14T02:17:06;3.72;;;3.08;;
36385;SDS011;24125;47.482;8.770;2022-10-14T02:19:47;5.85;;;3.10;;
36385;SDS011;24125;47.482;8.770;2022-10-14T02:22:24;3.88;;;2.97;;
36385;SDS011;24125;47.482;8.770;2022-10-14T02:25:02;3.40;;;2.83;;
36385;SDS011;24125;47.482;8.770;2022-10-14T02:27:40;5.90;;;3.03;;
36385;SDS011;24125;47.482;8.770;2022-10-14T02:30:16;4.93;;;3.05;;
36385;SDS011;24125;47.482;8.770;2022-10-14T02:32:50;5.97;;;2.70;;
36385;SDS011;24125;47.482;8.770;2022-10-14T02:35:26;3.72;;;2.50;;
36385;SDS011;24125;47.482;8.770;2022-10-14T02:38:03;3.45;;;2.83;;
36385;SDS011;24125;47.482;8.770;2022-10-14T02:40:38;2.53;;;2.17;;
36385;SDS011;24125;47.482;8.770;2022-10-14T02:43:14;5.97;;;2.30;;
36385;SDS011;24125;47.482;8.770;2022-10-14T02:45:48;3.22;;;2.40;;
36385;SDS011;24125;47.482;8.770;2022-10-14T02:48:21;4.20;;;2.30;;
36385;SDS011;24125;47.482;8.770;2022-10-14T02:50:55;4.00;;;2.50;;
36385;SDS011;24125;47.482;8.770;2022-10-14T02:53:28;3.55;;;2.53;;
36385;SDS011;24125;47.482;8.770;2022-10-14T02:56:01;7.00;;;2.35;;
36385;SDS011;24125;47.482;8.770;2022-10-14T02:58:34;3.75;;;1.98;;
36385;SDS011;24125;47.482;8.770;2022-10-14T03:01:07;3.92;;;2.30;;
36385;SDS011;24125;47.482;8.770;2022-10-14T03:03:40;3.25;;;2.28;;
36385;SDS011;24125;47.482;8.770;2022-10-14T03:06:15;3.33;;;2.30;;
36385;SDS011;24125;47.482;8.770;2022-10-14T03:08:48;6.45;;;2.47;;
36385;SDS011;24125;47.482;8.770;2022-10-14T03:11:22;4.28;;;2.20;;
36385;SDS011;24125;47.482;8.770;2022-10-14T03:13:54;4.68;;;2.25;;
36385;SDS011;24125;47.482;8.770;2022-10-14T03:16:27;2.90;;;2.30;;
36385;SDS011;24125;47.482;8.770;2022-10-14T03:19:00;2.92;;;1.90;;
36385;SDS011;24125;47.482;8.770;2022-10-14T03:21:35;2.63;;;1.75;;
36385;SDS011;24125;47.482;8.770;2022-10-14T03:24:07;3.13;;;1.80;;
36385;SDS011;24125;47.482;8.770;2022-10-14T03:26:41;4.97;;;1.77;;
36385;SDS011;24125;47.482;8.770;2022-10-14T03:29:14;3.65;;;2.15;;
36385;SDS011;24125;47.482;8.770;2022-10-14T03:31:47;2.70;;;1.70;;
36385;SDS011;24125;47.482;8.770;2022-10-14T03:34:19;2.30;;;1.80;;
36385;SDS011;24125;47.482;8.770;2022-10-14T03:36:54;2.45;;;1.60;;
36385;SDS011;24125;47.482;8.770;2022-10-14T03:39:27;2.67;;;1.58;;
36385;SDS011;24125;47.482;8.770;2022-10-14T03:42:00;2.10;;;1.63;;
36385;SDS011;24125;47.482;8.770;2022-10-14T03:44:33;5.57;;;2.05;;
36385;SDS011;24125;47.482;8.770;2022-10-14T03:47:06;2.38;;;1.50;;
36385;SDS011;24125;47.482;8.770;2022-10-14T03:49:39;2.28;;;1.70;;
36385;SDS011;24125;47.482;8.770;2022-10-14T03:52:13;2.83;;;1.60;;
36385;SDS011;24125;47.482;8.770;2022-10-14T03:54:46;4.65;;;1.70;;
36385;SDS011;24125;47.482;8.770;2022-10-14T03:57:19;2.78;;;1.48;;
36385;SDS011;24125;47.482;8.770;2022-10-14T03:59:51;2.50;;;1.77;;
36385;SDS011;24125;47.482;8.770;2022-10-14T04:02:24;2.88;;;1.67;;
36385;SDS011;24125;47.482;8.770;2022-10-14T04:04:57;5.65;;;1.70;;
36385;SDS011;24125;47.482;8.770;2022-10-14T04:07:33;3.42;;;1.63;;
36385;SDS011;24125;47.482;8.770;2022-10-14T04:10:06;2.67;;;1.60;;
36385;SDS011;24125;47.482;8.770;2022-10-14T04:12:45;3.63;;;1.40;;
36385;SDS011;24125;47.482;8.770;2022-10-14T04:15:18;7.13;;;1.65;;
36385;SDS011;24125;47.482;8.770;2022-10-14T04:17:52;4.00;;;1.60;;
36385;SDS011;24125;47.482;8.770;2022-10-14T04:20:25;13.82;;;2.80;;
36385;SDS011;24125;47.482;8.770;2022-10-14T04:23:00;1.52;;;1.27;;
36385;SDS011;24125;47.482;8.770;2022-10-14T04:25:33;5.90;;;1.70;;
36385;SDS011;24125;47.482;8.770;2022-10-14T04:28:08;2.55;;;1.30;;
36385;SDS011;24125;47.482;8.770;2022-10-14T04:30:41;3.28;;;1.60;;
36385;SDS011;24125;47.482;8.770;2022-10-14T04:33:14;1.98;;;1.40;;
36385;SDS011;24125;47.482;8.770;2022-10-14T04:35:48;2.00;;;1.50;;
36385;SDS011;24125;47.482;8.770;2022-10-14T04:38:23;2.97;;;1.52;;
36385;SDS011;24125;47.482;8.770;2022-10-14T04:40:57;4.43;;;1.30;;
36385;SDS011;24125;47.482;8.770;2022-10-14T04:43:30;5.13;;;1.45;;
36385;SDS011;24125;47.482;8.770;2022-10-14T04:46:04;3.13;;;1.60;;
36385;SDS011;24125;47.482;8.770;2022-10-14T04:48:37;2.65;;;1.27;;
36385;SDS011;24125;47.482;8.770;2022-10-14T04:51:11;1.90;;;1.27;;
36385;SDS011;24125;47.482;8.770;2022-10-14T04:53:45;4.22;;;1.23;;
36385;SDS011;24125;47.482;8.770;2022-10-14T04:56:18;2.28;;;1.23;;
36385;SDS011;24125;47.482;8.770;2022-10-14T04:58:51;3.08;;;1.45;;
36385;SDS011;24125;47.482;8.770;2022-10-14T05:01:24;4.63;;;1.42;;
36385;SDS011;24125;47.482;8.770;2022-10-14T05:04:03;2.20;;;1.02;;
36385;SDS011;24125;47.482;8.770;2022-10-14T05:06:37;3.97;;;1.20;;
36385;SDS011;24125;47.482;8.770;2022-10-14T05:09:11;3.22;;;1.20;;
36385;SDS011;24125;47.482;8.770;2022-10-14T05:11:44;2.55;;;1.00;;
36385;SDS011;24125;47.482;8.770;2022-10-14T05:14:17;2.22;;;1.13;;
36385;SDS011;24125;47.482;8.770;2022-10-14T05:16:50;4.35;;;0.98;;
36385;SDS011;24125;47.482;8.770;2022-10-14T05:19:23;3.08;;;1.33;;
36385;SDS011;24125;47.482;8.770;2022-10-14T05:21:56;1.88;;;1.08;;
36385;SDS011;24125;47.482;8.770;2022-10-14T05:24:30;1.10;;;1.00;;
36385;SDS011;24125;47.482;8.770;2022-10-14T05:27:05;1.65;;;0.90;;
36385;SDS011;24125;47.482;8.770;2022-10-14T05:29:38;1.48;;;1.02;;
36385;SDS011;24125;47.482;8.770;2022-10-14T05:32:12;2.58;;;0.90;;
36385;SDS011;24125;47.482;8.770;2022-10-14T05:34:44;1.48;;;1.00;;
36385;SDS011;24125;47.482;8.770;2022-10-14T05:37:17;2.80;;;1.10;;
36385;SDS011;24125;47.482;8.770;2022-10-14T05:39:52;2.10;;;0.95;;
36385;SDS011;24125;47.482;8.770;2022-10-14T05:42:25;0.93;;;0.82;;
36385;SDS011;24125;47.482;8.770;2022-10-14T05:44:58;1.70;;;1.08;;
36385;SDS011;24125;47.482;8.770;2022-10-14T05:47:31;1.95;;;0.90;;
36385;SDS011;24125;47.482;8.770;2022-10-14T05:50:04;1.63;;;0.95;;
36385;SDS011;24125;47.482;8.770;2022-10-14T05:52:38;1.48;;;0.88;;
36385;SDS011;24125;47.482;8.770;2022-10-14T05:55:12;1.25;;;0.90;;
36385;SDS011;24125;47.482;8.770;2022-10-14T05:57:46;1.88;;;1.13;;
36385;SDS011;24125;47.482;8.770;2022-10-14T06:00:20;3.30;;;1.08;;
36385;SDS011;24125;47.482;8.770;2022-10-14T06:02:56;1.35;;;0.98;;
36385;SDS011;24125;47.482;8.770;2022-10-14T06:05:29;2.03;;;0.90;;
36385;SDS011;24125;47.482;8.770;2022-10-14T06:08:02;3.22;;;1.45;;
36385;SDS011;24125;47.482;8.770;2022-10-14T06:10:36;4.28;;;1.63;;
36385;SDS011;24125;47.482;8.770;2022-10-14T06:13:09;11.60;;;4.22;;
36385;SDS011;24125;47.482;8.770;2022-10-14T06:15:42;7.03;;;2.80;;
36385;SDS011;24125;47.482;8.770;2022-10-14T06:18:15;4.78;;;2.03;;
36385;SDS011;24125;47.482;8.770;2022-10-14T06:20:52;2.88;;;1.02;;
36385;SDS011;24125;47.482;8.770;2022-10-14T06:23:26;3.45;;;1.40;;
36385;SDS011;24125;47.482;8.770;2022-10-14T06:26:03;2.13;;;1.35;;
36385;SDS011;24125;47.482;8.770;2022-10-14T06:28:37;2.70;;;1.17;;
36385;SDS011;24125;47.482;8.770;2022-10-14T06:31:10;4.43;;;1.48;;
36385;SDS011;24125;47.482;8.770;2022-10-14T06:33:43;5.07;;;1.60;;
36385;SDS011;24125;47.482;8.770;2022-10-14T06:36:16;1.95;;;1.52;;
36385;SDS011;24125;47.482;8.770;2022-10-14T06:38:49;4.57;;;1.30;;
36385;SDS011;24125;47.482;8.770;2022-10-14T06:41:24;4.65;;;1.85;;
36385;SDS011;24125;47.482;8.770;2022-10-14T06:43:57;1.88;;;1.30;;
36385;SDS011;24125;47.482;8.770;2022-10-14T06:46:30;2.30;;;1.42;;
36385;SDS011;24125;47.482;8.770;2022-10-14T06:49:03;6.00;;;1.60;;
36385;SDS011;24125;47.482;8.770;2022-10-14T06:51:35;3.55;;;1.48;;
36385;SDS011;24125;47.482;8.770;2022-10-14T06:54:09;1.65;;;1.48;;
36385;SDS011;24125;47.482;8.770;2022-10-14T06:56:44;2.17;;;1.75;;
36385;SDS011;24125;47.482;8.770;2022-10-14T06:59:17;1.85;;;1.70;;
36385;SDS011;24125;47.482;8.770;2022-10-14T07:01:50;2.83;;;1.90;;
36385;SDS011;24125;47.482;8.770;2022-10-14T07:04:23;3.33;;;2.05;;
36385;SDS011;24125;47.482;8.770;2022-10-14T07:06:57;5.88;;;2.20;;
36385;SDS011;24125;47.482;8.770;2022-10-14T07:09:30;3.65;;;2.28;;
36385;SDS011;24125;47.482;8.770;2022-10-14T07:12:05;2.67;;;2.08;;
36385;SDS011;24125;47.482;8.770;2022-10-14T07:14:38;7.60;;;2.05;;
36385;SDS011;24125;47.482;8.770;2022-10-14T07:17:11;3.10;;;1.88;;
36385;SDS011;24125;47.482;8.770;2022-10-14T07:19:43;4.35;;;1.70;;
36385;SDS011;24125;47.482;8.770;2022-10-14T07:22:16;2.50;;;1.67;;
36385;SDS011;24125;47.482;8.770;2022-10-14T07:24:50;3.13;;;1.85;;
36385;SDS011;24125;47.482;8.770;2022-10-14T07:27:24;3.25;;;1.98;;
36385;SDS011;24125;47.482;8.770;2022-10-14T07:29:57;3.53;;;1.80;;
36385;SDS011;24125;47.482;8.770;2022-10-14T07:32:33;2.22;;;1.63;;
36385;SDS011;24125;47.482;8.770;2022-10-14T07:35:07;4.07;;;1.88;;
36385;SDS011;24125;47.482;8.770;2022-10-14T07:37:40;5.38;;;2.05;;
36385;SDS011;24125;47.482;8.770;2022-10-14T07:40:13;3.28;;;1.63;;
36385;SDS011;24125;47.482;8.770;2022-10-14T07:42:48;2.15;;;1.40;;
36385;SDS011;24125;47.482;8.770;2022-10-14T07:45:21;4.10;;;1.70;;
36385;SDS011;24125;47.482;8.770;2022-10-14T07:47:54;4.10;;;1.88;;
36385;SDS011;24125;47.482;8.770;2022-10-14T07:50:27;5.35;;;1.60;;
36385;SDS011;24125;47.482;8.770;2022-10-14T07:53:00;3.42;;;1.88;;
36385;SDS011;24125;47.482;8.770;2022-10-14T07:55:32;3.58;;;2.00;;
36385;SDS011;24125;47.482;8.770;2022-10-14T07:58:07;4.38;;;2.22;;
36385;SDS011;24125;47.482;8.770;2022-10-14T08:00:39;3.72;;;2.10;;
36385;SDS011;24125;47.482;8.770;2022-10-14T08:03:12;2.80;;;1.52;;
36385;SDS011;24125;47.482;8.770;2022-10-14T08:05:46;3.55;;;1.40;;
36385;SDS011;24125;47.482;8.770;2022-10-14T08:08:20;6.53;;;1.67;;
36385;SDS011;24125;47.482;8.770;2022-10-14T08:11:01;2.88;;;1.67;;
36385;SDS011;24125;47.482;8.770;2022-10-14T08:13:37;5.13;;;1.77;;
36385;SDS011;24125;47.482;8.770;2022-10-14T08:16:17;1.88;;;1.65;;
36385;SDS011;24125;47.482;8.770;2022-10-14T08:18:51;2.47;;;1.70;;
36385;SDS011;24125;47.482;8.770;2022-10-14T08:21:26;1.90;;;1.33;;
36385;SDS011;24125;47.482;8.770;2022-10-14T08:24:00;1.77;;;1.38;;
36385;SDS011;24125;47.482;8.770;2022-10-14T08:26:33;3.10;;;1.90;;
36385;SDS011;24125;47.482;8.770;2022-10-14T08:29:09;4.00;;;1.35;;
36385;SDS011;24125;47.482;8.770;2022-10-14T08:31:43;1.77;;;1.38;;
36385;SDS011;24125;47.482;8.770;2022-10-14T08:34:17;2.97;;;2.20;;
36385;SDS011;24125;47.482;8.770;2022-10-14T08:36:51;1.70;;;1.35;;
36385;SDS011;24125;47.482;8.770;2022-10-14T08:39:24;2.10;;;1.50;;
36385;SDS011;24125;47.482;8.770;2022-10-14T08:42:11;1.98;;;1.25;;
36385;SDS011;24125;47.482;8.770;2022-10-14T08:45:07;4.22;;;1.40;;
36385;SDS011;24125;47.482;8.770;2022-10-14T08:47:43;1.58;;;1.30;;
36385;SDS011;24125;47.482;8.770;2022-10-14T08:50:21;5.10;;;1.50;;
36385;SDS011;24125;47.482;8.770;2022-10-14T08:53:01;3.70;;;1.52;;
36385;SDS011;24125;47.482;8.770;2022-10-14T08:55:39;3.05;;;1.40;;
36385;SDS011;24125;47.482;8.770;2022-10-14T08:58:18;3.50;;;1.67;;
36385;SDS011;24125;47.482;8.770;2022-10-14T09:01:02;4.70;;;1.80;;
36385;SDS011;24125;47.482;8.770;2022-10-14T09:03:43;2.58;;;1.45;;
36385;SDS011;24125;47.482;8.770;2022-10-14T09:06:18;2.63;;;1.60;;
36385;SDS011;24125;47.482;8.770;2022-10-14T09:08:57;2.75;;;1.15;;
36385;SDS011;24125;47.482;8.770;2022-10-14T09:11:38;2.28;;;1.42;;
36385;SDS011;24125;47.482;8.770;2022-10-14T09:14:14;3.97;;;1.42;;
36385;SDS011;24125;47.482;8.770;2022-10-14T09:16:53;2.15;;;1.35;;
36385;SDS011;24125;47.482;8.770;2022-10-14T09:19:30;4.60;;;1.73;;
36385;SDS011;24125;47.482;8.770;2022-10-14T09:22:08;2.17;;;1.40;;
36385;SDS011;24125;47.482;8.770;2022-10-14T09:24:46;3.00;;;1.98;;
36385;SDS011;24125;47.482;8.770;2022-10-14T09:27:20;2.00;;;1.40;;
36385;SDS011;24125;47.482;8.770;2022-10-14T09:29:56;2.40;;;1.35;;
36385;SDS011;24125;47.482;8.770;2022-10-14T09:32:34;2.30;;;1.52;;
36385;SDS011;24125;47.482;8.770;2022-10-14T09:35:12;2.03;;;1.40;;
36385;SDS011;24125;47.482;8.770;2022-10-14T09:37:47;4.22;;;1.50;;
36385;SDS011;24125;47.482;8.770;2022-10-14T09:40:23;3.30;;;1.70;;
36385;SDS011;24125;47.482;8.770;2022-10-14T09:43:02;2.67;;;1.63;;
36385;SDS011;24125;47.482;8.770;2022-10-14T09:45:49;3.00;;;1.50;;
36385;SDS011;24125;47.482;8.770;2022-10-14T09:48:30;1.85;;;1.20;;
36385;SDS011;24125;47.482;8.770;2022-10-14T09:51:08;1.73;;;1.17;;
36385;SDS011;24125;47.482;8.770;2022-10-14T09:53:50;2.25;;;1.17;;
36385;SDS011;24125;47.482;8.770;2022-10-14T09:56:26;1.92;;;1.30;;
36385;SDS011;24125;47.482;8.770;2022-10-14T09:59:02;1.45;;;1.25;;
36385;SDS011;24125;47.482;8.770;2022-10-14T10:01:36;3.50;;;1.80;;
36385;SDS011;24125;47.482;8.770;2022-10-14T10:04:24;1.77;;;1.20;;
36385;SDS011;24125;47.482;8.770;2022-10-14T10:07:04;2.10;;;1.47;;
36385;SDS011;24125;47.482;8.770;2022-10-14T10:09:39;2.53;;;1.35;;
36385;SDS011;24125;47.482;8.770;2022-10-14T10:12:21;2.30;;;1.10;;
36385;SDS011;24125;47.482;8.770;2022-10-14T10:14:56;1.40;;;1.10;;
36385;SDS011;24125;47.482;8.770;2022-10-14T10:17:31;1.95;;;1.35;;
36385;SDS011;24125;47.482;8.770;2022-10-14T10:20:08;2.40;;;1.30;;
36385;SDS011;24125;47.482;8.770;2022-10-14T10:23:19;2.55;;;1.27;;
36385;SDS011;24125;47.482;8.770;2022-10-14T10:25:56;5.10;;;1.17;;
36385;SDS011;24125;47.482;8.770;2022-10-14T10:28:47;2.22;;;1.38;;
36385;SDS011;24125;47.482;8.770;2022-10-14T10:34:34;1.70;;;1.42;;
36385;SDS011;24125;47.482;8.770;2022-10-14T10:37:37;2.47;;;1.40;;
36385;SDS011;24125;47.482;8.770;2022-10-14T10:40:33;3.75;;;1.77;;
36385;SDS011;24125;47.482;8.770;2022-10-14T10:43:23;3.40;;;1.75;;
36385;SDS011;24125;47.482;8.770;2022-10-14T10:46:19;2.15;;;1.35;;
36385;SDS011;24125;47.482;8.770;2022-10-14T10:49:00;2.67;;;1.45;;
36385;SDS011;24125;47.482;8.770;2022-10-14T10:51:44;2.47;;;1.60;;
36385;SDS011;24125;47.482;8.770;2022-10-14T10:54:28;2.22;;;1.30;;
36385;SDS011;24125;47.482;8.770;2022-10-14T10:57:17;3.00;;;1.52;;
36385;SDS011;24125;47.482;8.770;2022-10-14T11:00:02;2.97;;;1.70;;
36385;SDS011;24125;47.482;8.770;2022-10-14T11:05:45;2.45;;;1.67;;
36385;SDS011;24125;47.482;8.770;2022-10-14T11:08:30;2.13;;;1.48;;
36385;SDS011;24125;47.482;8.770;2022-10-14T11:11:45;2.05;;;1.48;;
36385;SDS011;24125;47.482;8.770;2022-10-14T11:14:40;6.78;;;1.88;;
36385;SDS011;24125;47.482;8.770;2022-10-14T11:17:31;3.55;;;1.40;;
36385;SDS011;24125;47.482;8.770;2022-10-14T11:20:13;3.63;;;1.48;;
36385;SDS011;24125;47.482;8.770;2022-10-14T11:22:57;2.88;;;1.45;;
36385;SDS011;24125;47.482;8.770;2022-10-14T11:25:45;1.73;;;1.40;;
36385;SDS011;24125;47.482;8.770;2022-10-14T11:28:28;3.00;;;1.60;;
36385;SDS011;24125;47.482;8.770;2022-10-14T11:31:13;1.85;;;1.40;;
36385;SDS011;24125;47.482;8.770;2022-10-14T11:34:01;5.63;;;1.63;;
36385;SDS011;24125;47.482;8.770;2022-10-14T11:36:48;2.55;;;1.73;;
36385;SDS011;24125;47.482;8.770;2022-10-14T11:39:33;2.83;;;1.20;;
36385;SDS011;24125;47.482;8.770;2022-10-14T11:42:17;3.05;;;1.58;;
36385;SDS011;24125;47.482;8.770;2022-10-14T11:45:03;2.63;;;1.55;;
36385;SDS011;24125;47.482;8.770;2022-10-14T11:47:51;2.50;;;1.65;;
36385;SDS011;24125;47.482;8.770;2022-10-14T11:50:32;2.45;;;1.63;;
36385;SDS011;24125;47.482;8.770;2022-10-14T11:53:12;3.05;;;1.55;;
36385;SDS011;24125;47.482;8.770;2022-10-14T11:55:51;3.75;;;1.58;;
36385;SDS011;24125;47.482;8.770;2022-10-14T12:01:07;4.55;;;1.30;;
36385;SDS011;24125;47.482;8.770;2022-10-14T12:03:46;3.25;;;1.50;;
36385;SDS011;24125;47.482;8.770;2022-10-14T12:06:25;8.52;;;1.70;;
36385;SDS011;24125;47.482;8.770;2022-10-14T12:09:05;3.08;;;1.80;;
36385;SDS011;24125;47.482;8.770;2022-10-14T12:11:45;4.88;;;1.80;;
36385;SDS011;24125;47.482;8.770;2022-10-14T12:14:24;4.80;;;2.05;;
36385;SDS011;24125;47.482;8.770;2022-10-14T12:17:05;2.85;;;1.77;;
36385;SDS011;24125;47.482;8.770;2022-10-14T12:19:49;2.80;;;1.75;;
36385;SDS011;24125;47.482;8.770;2022-10-14T12:22:23;2.85;;;1.85;;
36385;SDS011;24125;47.482;8.770;2022-10-14T12:25:00;3.28;;;2.17;;
36385;SDS011;24125;47.482;8.770;2022-10-14T12:27:37;3.30;;;2.33;;
36385;SDS011;24125;47.482;8.770;2022-10-14T12:30:30;2.97;;;1.70;;
36385;SDS011;24125;47.482;8.770;2022-10-14T12:33:07;2.10;;;1.70;;
36385;SDS011;24125;47.482;8.770;2022-10-14T12:35:46;2.83;;;1.75;;
36385;SDS011;24125;47.482;8.770;2022-10-14T12:38:22;5.38;;;1.70;;
36385;SDS011;24125;47.482;8.770;2022-10-14T12:40:55;1.98;;;1.70;;
36385;SDS011;24125;47.482;8.770;2022-10-14T12:44:11;2.45;;;1.65;;
36385;SDS011;24125;47.482;8.770;2022-10-14T12:46:49;2.38;;;1.90;;
36385;SDS011;24125;47.482;8.770;2022-10-14T12:49:27;3.15;;;2.17;;
36385;SDS011;24125;47.482;8.770;2022-10-14T12:52:03;2.92;;;1.80;;
36385;SDS011;24125;47.482;8.770;2022-10-14T12:54:38;3.80;;;1.83;;
36385;SDS011;24125;47.482;8.770;2022-10-14T12:57:24;3.22;;;1.90;;
36385;SDS011;24125;47.482;8.770;2022-10-14T13:00:00;2.00;;;1.67;;
36385;SDS011;24125;47.482;8.770;2022-10-14T13:02:42;2.72;;;2.03;;
36385;SDS011;24125;47.482;8.770;2022-10-14T13:05:24;2.90;;;1.90;;
36385;SDS011;24125;47.482;8.770;2022-10-14T13:08:10;4.35;;;1.90;;
36385;SDS011;24125;47.482;8.770;2022-10-14T13:10:46;4.88;;;2.08;;
36385;SDS011;24125;47.482;8.770;2022-10-14T13:22:37;4.53;;;1.50;;
36385;SDS011;24125;47.482;8.770;2022-10-14T13:25:14;2.65;;;1.75;;
36385;SDS011;24125;47.482;8.770;2022-10-14T13:27:58;3.28;;;1.73;;
36385;SDS011;24125;47.482;8.770;2022-10-14T13:30:38;2.05;;;1.42;;
36385;SDS011;24125;47.482;8.770;2022-10-14T13:33:22;2.72;;;1.65;;
36385;SDS011;24125;47.482;8.770;2022-10-14T13:36:03;4.03;;;1.95;;
36385;SDS011;24125;47.482;8.770;2022-10-14T13:38:53;4.05;;;1.67;;
36385;SDS011;24125;47.482;8.770;2022-10-14T13:44:01;3.33;;;1.80;;
36385;SDS011;24125;47.482;8.770;2022-10-14T13:46:35;2.45;;;1.77;;
36385;SDS011;24125;47.482;8.770;2022-10-14T13:49:13;4.28;;;1.50;;
36385;SDS011;24125;47.482;8.770;2022-10-14T13:51:49;2.95;;;1.67;;
36385;SDS011;24125;47.482;8.770;2022-10-14T13:54:26;7.63;;;1.70;;
36385;SDS011;24125;47.482;8.770;2022-10-14T13:57:01;6.60;;;1.92;;
36385;SDS011;24125;47.482;8.770;2022-10-14T13:59:57;5.88;;;2.17;;
36385;SDS011;24125;47.482;8.770;2022-10-14T14:02:50;2.25;;;1.52;;
36385;SDS011;24125;47.482;8.770;2022-10-14T14:05:28;1.95;;;1.70;;
36385;SDS011;24125;47.482;8.770;2022-10-14T14:08:10;2.20;;;1.67;;
36385;SDS011;24125;47.482;8.770;2022-10-14T14:11:15;2.47;;;1.63;;
36385;SDS011;24125;47.482;8.770;2022-10-14T14:13:53;4.72;;;1.70;;
36385;SDS011;24125;47.482;8.770;2022-10-14T14:16:32;5.47;;;1.85;;
36385;SDS011;24125;47.482;8.770;2022-10-14T14:19:15;3.85;;;1.77;;
36385;SDS011;24125;47.482;8.770;2022-10-14T14:21:50;3.75;;;1.50;;
36385;SDS011;24125;47.482;8.770;2022-10-14T14:24:25;2.60;;;1.55;;
36385;SDS011;24125;47.482;8.770;2022-10-14T14:27:04;4.13;;;1.85;;
36385;SDS011;24125;47.482;8.770;2022-10-14T14:29:39;3.65;;;1.77;;
36385;SDS011;24125;47.482;8.770;2022-10-14T14:32:14;4.85;;;1.90;;
36385;SDS011;24125;47.482;8.770;2022-10-14T14:34:48;2.05;;;1.60;;
36385;SDS011;24125;47.482;8.770;2022-10-14T14:37:24;1.98;;;1.52;;
36385;SDS011;24125;47.482;8.770;2022-10-14T14:40:19;3.50;;;1.70;;
36385;SDS011;24125;47.482;8.770;2022-10-14T14:42:56;3.17;;;1.88;;
36385;SDS011;24125;47.482;8.770;2022-10-14T14:45:33;2.28;;;1.73;;
36385;SDS011;24125;47.482;8.770;2022-10-14T14:48:14;2.42;;;1.70;;
36385;SDS011;24125;47.482;8.770;2022-10-14T14:50:49;4.30;;;1.52;;
36385;SDS011;24125;47.482;8.770;2022-10-14T14:53:22;2.10;;;1.65;;
36385;SDS011;24125;47.482;8.770;2022-10-14T14:56:03;3.15;;;1.70;;
36385;SDS011;24125;47.482;8.770;2022-10-14T14:58:45;2.47;;;1.73;;
36385;SDS011;24125;47.482;8.770;2022-10-14T15:01:21;2.90;;;1.90;;
36385;SDS011;24125;47.482;8.770;2022-10-14T15:03:57;2.20;;;1.70;;
36385;SDS011;24125;47.482;8.770;2022-10-14T15:06:47;3.00;;;1.67;;
36385;SDS011;24125;47.482;8.770;2022-10-14T15:09:23;1.95;;;1.35;;
36385;SDS011;24125;47.482;8.770;2022-10-14T15:12:05;2.17;;;1.55;;
36385;SDS011;24125;47.482;8.770;2022-10-14T15:14:49;2.80;;;1.65;;
36385;SDS011;24125;47.482;8.770;2022-10-14T15:17:27;2.63;;;1.80;;
36385;SDS011;24125;47.482;8.770;2022-10-14T15:20:25;1.92;;;1.73;;
36385;SDS011;24125;47.482;8.770;2022-10-14T15:23:00;5.60;;;1.90;;
36385;SDS011;24125;47.482;8.770;2022-10-14T15:25:35;5.68;;;1.80;;
36385;SDS011;24125;47.482;8.770;2022-10-14T15:28:26;2.60;;;1.63;;
36385;SDS011;24125;47.482;8.770;2022-10-14T15:31:02;3.42;;;1.27;;
36385;SDS011;24125;47.482;8.770;2022-10-14T15:33:36;2.17;;;1.52;;
36385;SDS011;24125;47.482;8.770;2022-10-14T15:36:09;1.48;;;1.10;;
36385;SDS011;24125;47.482;8.770;2022-10-14T15:38:43;2.30;;;1.33;;
36385;SDS011;24125;47.482;8.770;2022-10-14T15:41:16;3.25;;;1.70;;
36385;SDS011;24125;47.482;8.770;2022-10-14T15:43:49;3.08;;;1.45;;
36385;SDS011;24125;47.482;8.770;2022-10-14T15:46:23;1.70;;;1.27;;
36385;SDS011;24125;47.482;8.770;2022-10-14T15:49:24;2.13;;;1.17;;
36385;SDS011;24125;47.482;8.770;2022-10-14T15:51:59;3.00;;;1.27;;
36385;SDS011;24125;47.482;8.770;2022-10-14T15:54:32;4.95;;;1.50;;
36385;SDS011;24125;47.482;8.770;2022-10-14T15:57:06;1.85;;;1.30;;
36385;SDS011;24125;47.482;8.770;2022-10-14T15:59:44;2.75;;;1.30;;
36385;SDS011;24125;47.482;8.770;2022-10-14T16:02:20;1.52;;;1.05;;
36385;SDS011;24125;47.482;8.770;2022-10-14T16:04:56;1.98;;;1.30;;
36385;SDS011;24125;47.482;8.770;2022-10-14T16:07:49;1.40;;;1.15;;
36385;SDS011;24125;47.482;8.770;2022-10-14T16:10:23;1.52;;;1.15;;
36385;SDS011;24125;47.482;8.770;2022-10-14T16:13:02;2.22;;;1.50;;
36385;SDS011;24125;47.482;8.770;2022-10-14T16:15:37;1.55;;;1.15;;